createdAt,value
2023-01-04T00:00:12.369Z,6.93
2023-01-04T00:02:40.471Z,6.91
2023-01-04T00:05:08.999Z,6.91
2023-01-04T00:07:36.927Z,6.89
2023-01-04T00:10:05.228Z,6.89
2023-01-04T00:12:33.198Z,6.87
2023-01-04T00:15:01.155Z,6.83
2023-01-04T00:17:30.509Z,6.79
2023-01-04T00:19:58.466Z,6.77
2023-01-04T00:22:26.415Z,6.79
2023-01-04T00:24:54.363Z,6.78
2023-01-04T00:27:22.292Z,6.77
2023-01-04T00:29:50.254Z,6.78
2023-01-04T00:32:18.207Z,6.75
2023-01-04T00:34:47.557Z,6.71
2023-01-04T00:37:15.521Z,6.65
2023-01-04T00:39:43.493Z,6.63
2023-01-04T00:42:11.389Z,6.62
2023-01-04T00:44:39.363Z,6.58
2023-01-04T00:47:07.363Z,6.53
2023-01-04T00:49:35.336Z,6.46
2023-01-04T00:52:04.728Z,6.40
2023-01-04T00:54:32.707Z,6.35
2023-01-04T00:57:01.369Z,6.32
2023-01-04T00:59:29.404Z,6.21
2023-01-04T01:01:57.469Z,6.21
2023-01-04T01:04:25.572Z,6.20
2023-01-04T01:06:53.621Z,6.13
2023-01-04T01:09:23.845Z,6.13
2023-01-04T01:11:52.128Z,6.10
2023-01-04T01:14:20.822Z,6.07
2023-01-04T01:16:58.161Z,6.02
2023-01-04T01:19:27.053Z,6.03
2023-01-04T01:21:56.480Z,6.02
2023-01-04T01:24:25.877Z,5.97
2023-01-04T01:26:53.846Z,5.93
2023-01-04T01:29:21.769Z,5.90
2023-01-04T01:31:49.902Z,5.89
2023-01-04T01:34:17.947Z,5.85
2023-01-04T01:36:45.908Z,5.86
2023-01-04T01:39:13.866Z,5.85
2023-01-04T01:41:43.136Z,5.83
2023-01-04T01:44:44.049Z,5.81
2023-01-04T01:47:12.481Z,5.79
2023-01-04T01:49:40.536Z,5.75
2023-01-04T01:52:10.290Z,5.74
2023-01-04T01:54:40.660Z,5.74
2023-01-04T01:57:11.107Z,5.73
2023-01-04T01:59:39.917Z,5.71
2023-01-04T02:02:07.952Z,5.72
2023-01-04T02:04:36.095Z,5.75
2023-01-04T02:07:04.020Z,5.79
2023-01-04T02:09:32.003Z,5.88
2023-01-04T02:11:59.990Z,6.01
2023-01-04T02:14:29.801Z,6.08
2023-01-04T02:17:05.863Z,6.09
2023-01-04T02:19:50.352Z,6.03
2023-01-04T02:22:31.299Z,5.95
2023-01-04T02:25:23.545Z,5.86
2023-01-04T02:27:53.503Z,5.76
2023-01-04T02:30:53.852Z,5.75
2023-01-04T02:33:30.663Z,5.66
2023-01-04T02:36:01.331Z,5.68
2023-01-04T02:38:31.937Z,5.72
2023-01-04T02:41:04.894Z,5.71
2023-01-04T02:43:51.928Z,5.56
2023-01-04T02:46:24.117Z,5.66
2023-01-04T02:49:09.275Z,5.69
2023-01-04T02:51:37.949Z,5.74
2023-01-04T02:54:07.688Z,5.76
2023-01-04T02:56:44.858Z,5.63
2023-01-04T02:59:40.855Z,5.77
2023-01-04T03:02:36.635Z,5.65
2023-01-04T03:05:24.574Z,5.75
2023-01-04T03:07:55.004Z,5.74
2023-01-04T03:10:24.977Z,5.67
2023-01-04T03:12:54.696Z,5.73
2023-01-04T03:15:23.934Z,5.68
2023-01-04T03:17:55.698Z,5.55
2023-01-04T03:20:24.339Z,5.65
2023-01-04T03:23:10.884Z,5.50
2023-01-04T03:25:58.152Z,5.50
2023-01-04T03:28:44.337Z,5.38
2023-01-04T03:31:31.645Z,5.34
2023-01-04T03:34:18.409Z,5.29
2023-01-04T03:37:04.137Z,5.28
2023-01-04T03:39:56.204Z,5.31
2023-01-04T03:42:43.901Z,5.28
2023-01-04T03:45:34.467Z,5.33
2023-01-04T03:48:22.799Z,5.34
2023-01-04T03:50:53.008Z,5.23
2023-01-04T03:53:21.007Z,5.13
2023-01-04T03:55:48.925Z,5.05
2023-01-04T03:58:16.874Z,4.98
2023-01-04T04:00:44.867Z,4.95
2023-01-04T04:03:12.841Z,4.92
2023-01-04T04:05:59.302Z,4.90
2023-01-04T04:08:31.422Z,4.85
2023-01-04T04:11:20.108Z,4.80
2023-01-04T04:13:48.097Z,4.76
2023-01-04T04:16:16.182Z,4.75
2023-01-04T04:18:44.184Z,4.79
2023-01-04T04:21:12.115Z,4.84
2023-01-04T04:23:41.440Z,4.88
2023-01-04T04:26:09.371Z,4.91
2023-01-04T04:28:37.357Z,4.85
2023-01-04T04:31:05.602Z,4.85
2023-01-04T04:33:33.510Z,4.89
2023-01-04T04:36:01.478Z,4.96
2023-01-04T04:38:29.449Z,5.10
2023-01-04T04:41:16.342Z,5.28
2023-01-04T04:43:44.296Z,5.40
2023-01-04T04:46:13.006Z,5.47
2023-01-04T04:48:41.015Z,5.57
2023-01-04T04:51:08.963Z,5.65
2023-01-04T04:53:36.870Z,5.74
2023-01-04T04:56:07.659Z,5.81
2023-01-04T04:58:35.671Z,5.86
2023-01-04T05:01:03.700Z,5.90
2023-01-04T05:03:31.709Z,5.91
2023-01-04T05:05:59.660Z,5.91
2023-01-04T05:08:27.645Z,5.82
2023-01-04T05:10:55.617Z,5.98
2023-01-04T05:13:23.952Z,6.05
2023-01-04T05:15:52.700Z,6.15
2023-01-04T05:18:21.515Z,6.16
2023-01-04T05:20:49.557Z,6.26
2023-01-04T05:23:18.313Z,6.34
2023-01-04T05:25:46.290Z,6.36
2023-01-04T05:28:14.276Z,6.48
2023-01-04T05:30:51.869Z,6.55
2023-01-04T05:33:21.142Z,6.53
2023-01-04T05:35:49.139Z,6.40
2023-01-04T05:38:17.300Z,6.36
2023-01-04T05:40:45.233Z,6.29
2023-01-04T05:43:13.888Z,6.25
2023-01-04T05:45:44.363Z,6.25
2023-01-04T05:48:12.346Z,6.22
2023-01-04T05:50:40.322Z,6.25
2023-01-04T05:53:08.271Z,6.26
2023-01-04T05:55:36.294Z,6.30
2023-01-04T05:58:04.256Z,6.38
2023-01-04T06:00:32.345Z,6.42
2023-01-04T06:03:01.856Z,6.50
2023-01-04T06:05:29.976Z,6.56
2023-01-04T06:07:57.943Z,6.64
2023-01-04T06:10:25.866Z,6.74
2023-01-04T06:12:53.847Z,6.84
2023-01-04T06:15:21.782Z,6.89
2023-01-04T06:17:49.734Z,6.92
2023-01-04T06:20:19.165Z,7.00
2023-01-04T06:22:47.094Z,7.10
2023-01-04T06:25:15.049Z,7.19
2023-01-04T06:27:43.064Z,7.30
2023-01-04T06:30:11.523Z,7.36
2023-01-04T06:32:39.477Z,7.45
2023-01-04T06:35:07.839Z,7.56
2023-01-04T06:37:37.136Z,7.61
2023-01-04T06:40:05.936Z,7.68
2023-01-04T06:42:45.930Z,7.74
2023-01-04T06:45:13.941Z,7.79
2023-01-04T06:47:41.997Z,7.87
2023-01-04T06:50:10.213Z,7.92
2023-01-04T06:52:39.553Z,7.95
2023-01-04T06:55:09.545Z,8.01
2023-01-04T06:57:37.854Z,8.03
2023-01-04T07:00:08.183Z,8.04
2023-01-04T07:02:36.319Z,8.02
2023-01-04T07:05:04.475Z,7.97
2023-01-04T07:07:33.389Z,7.98
2023-01-04T07:10:09.598Z,7.98
2023-01-04T07:12:37.950Z,8.03
2023-01-04T07:15:39.316Z,8.15
2023-01-04T07:17:54.733Z,8.30
2023-01-04T07:20:22.647Z,8.43
2023-01-04T07:22:50.586Z,8.56
2023-01-04T07:25:20.011Z,8.65
2023-01-04T07:27:51.993Z,8.69
2023-01-04T07:30:20.091Z,8.68
2023-01-04T07:32:48.071Z,8.60
2023-01-04T07:35:16.226Z,8.58
2023-01-04T07:37:44.245Z,8.64
2023-01-04T07:40:12.737Z,8.76
2023-01-04T07:42:42.089Z,8.86
2023-01-04T07:45:10.603Z,8.99
2023-01-04T07:47:38.569Z,9.17
2023-01-04T07:50:07.270Z,9.31
2023-01-04T07:52:35.229Z,9.47
2023-01-04T07:55:03.174Z,9.61
2023-01-04T07:57:31.090Z,9.67
2023-01-04T08:00:00.434Z,9.79
2023-01-04T08:02:28.502Z,9.83
2023-01-04T08:04:57.408Z,9.85
2023-01-04T08:07:25.484Z,9.88
2023-01-04T08:09:53.474Z,9.86
2023-01-04T08:12:21.443Z,9.88
2023-01-04T08:14:49.700Z,9.85
2023-01-04T08:17:19.037Z,9.82
2023-01-04T08:19:47.568Z,9.76
2023-01-04T08:22:15.586Z,9.70
2023-01-04T08:24:43.631Z,9.61
2023-01-04T08:27:11.790Z,9.58
2023-01-04T08:29:39.744Z,9.51
2023-01-04T08:32:07.954Z,9.41
2023-01-04T08:34:37.285Z,9.43
2023-01-04T08:37:05.241Z,9.36
2023-01-04T08:39:36.178Z,9.32
2023-01-04T08:42:17.710Z,9.28
2023-01-04T08:44:48.603Z,9.14
2023-01-04T08:47:16.540Z,9.13
2023-01-04T08:49:45.911Z,9.09
2023-01-04T08:52:15.856Z,9.09
2023-01-04T08:54:43.850Z,9.06
2023-01-04T08:57:11.830Z,8.95
2023-01-04T08:59:39.800Z,8.84
2023-01-04T09:02:23.533Z,8.64
2023-01-04T09:04:54.176Z,8.53
2023-01-04T09:07:22.184Z,8.55
2023-01-04T09:09:50.153Z,8.31
2023-01-04T09:12:18.133Z,8.28
2023-01-04T09:14:46.099Z,8.34
2023-01-04T09:17:14.026Z,8.42
2023-01-04T09:19:41.951Z,8.46
2023-01-04T09:22:11.348Z,8.50
2023-01-04T09:24:39.313Z,8.49
2023-01-04T09:27:07.264Z,8.41
2023-01-04T09:29:35.253Z,8.39
2023-01-04T09:32:03.282Z,8.41
2023-01-04T09:34:31.294Z,8.42
2023-01-04T09:36:59.215Z,8.44
2023-01-04T09:39:30.609Z,8.45
2023-01-04T09:41:59.183Z,8.46
2023-01-04T09:45:12.035Z,8.50
2023-01-04T09:47:26.967Z,8.51
2023-01-04T09:49:55.980Z,8.56
2023-01-04T09:52:25.003Z,8.58
2023-01-04T09:54:58.891Z,8.67
2023-01-04T09:57:30.245Z,8.72
2023-01-04T10:00:00.979Z,8.78
2023-01-04T10:02:32.467Z,8.85
2023-01-04T10:05:00.761Z,8.91
2023-01-04T10:07:29.561Z,8.93
2023-01-04T10:09:58.901Z,8.98
2023-01-04T10:12:35.419Z,8.97
2023-01-04T10:15:16.584Z,9.14
2023-01-04T10:21:29.432Z,9.32
2023-01-04T10:23:59.627Z,9.30
2023-01-04T10:26:31.606Z,9.40
2023-01-04T10:29:27.117Z,9.43
2023-01-04T10:31:57.042Z,9.49
2023-01-04T10:34:26.042Z,9.48
2023-01-04T10:36:57.041Z,9.46
2023-01-04T10:39:32.316Z,9.39
2023-01-04T10:42:09.320Z,9.37
2023-01-04T10:44:39.597Z,9.48
2023-01-04T10:47:10.275Z,9.44
2023-01-04T10:49:42.939Z,9.54
2023-01-04T10:52:13.094Z,9.56
2023-01-04T10:54:42.264Z,9.60
2023-01-04T10:57:13.215Z,9.67
2023-01-04T10:59:43.670Z,9.67
2023-01-04T11:02:17.328Z,9.72
2023-01-04T11:04:48.109Z,9.76
2023-01-04T11:07:19.353Z,9.78
2023-01-04T11:09:48.702Z,9.78
2023-01-04T11:12:18.651Z,9.68
2023-01-04T11:14:46.667Z,9.71
2023-01-04T11:17:14.604Z,9.62
2023-01-04T11:19:42.553Z,9.59
2023-01-04T11:22:15.032Z,9.41
2023-01-04T11:25:00.496Z,9.27
2023-01-04T11:27:33.337Z,9.26
2023-01-04T11:30:03.953Z,9.20
2023-01-04T11:32:36.075Z,9.25
2023-01-04T11:35:04.115Z,9.31
2023-01-04T11:37:34.510Z,9.38
2023-01-04T11:40:21.544Z,9.40
2023-01-04T11:42:52.060Z,9.43
2023-01-04T11:45:24.863Z,9.45
2023-01-04T11:47:54.076Z,9.44
2023-01-04T11:50:40.028Z,9.46
2023-01-04T11:53:30.493Z,9.51
2023-01-04T11:56:10.825Z,9.59
2023-01-04T11:58:40.170Z,9.65
2023-01-04T12:01:11.872Z,9.68
2023-01-04T12:03:40.436Z,9.65
2023-01-04T12:06:11.821Z,9.69
2023-01-04T12:08:39.822Z,9.79
2023-01-04T12:11:07.812Z,9.89
2023-01-04T12:13:35.737Z,9.86
2023-01-04T12:16:08.812Z,9.92
2023-01-04T12:18:37.548Z,9.89
2023-01-04T12:21:05.721Z,10.02
2023-01-04T12:23:34.484Z,10.03
2023-01-04T12:26:02.424Z,10.00
2023-01-04T12:28:34.776Z,9.97
2023-01-04T12:31:29.421Z,9.94
2023-01-04T12:33:58.237Z,9.84
2023-01-04T12:37:04.803Z,9.82
2023-01-04T12:39:42.831Z,9.75
2023-01-04T12:42:24.756Z,9.66
2023-01-04T12:45:16.849Z,9.53
2023-01-04T12:48:04.639Z,9.45
2023-01-04T12:50:34.168Z,9.43
2023-01-04T12:55:55.846Z,9.37
2023-01-04T13:02:15.841Z,9.39
2023-01-04T13:04:45.681Z,9.37
2023-01-04T13:07:17.626Z,9.36
2023-01-04T13:09:51.073Z,9.30
2023-01-04T13:12:51.139Z,9.25
2023-01-04T13:15:23.073Z,9.16
2023-01-04T13:17:51.011Z,9.18
2023-01-04T13:20:21.714Z,9.10
2023-01-04T13:22:52.754Z,9.12
2023-01-04T13:25:20.771Z,9.12
2023-01-04T13:28:02.092Z,9.11
2023-01-04T13:30:32.018Z,9.01
2023-01-04T13:33:25.614Z,8.91
2023-01-04T13:36:00.739Z,8.88
2023-01-04T13:38:28.979Z,8.96
2023-01-04T13:40:57.008Z,8.91
2023-01-04T13:43:42.792Z,8.93
2023-01-04T13:46:14.880Z,8.90
2023-01-04T13:48:43.820Z,8.82
2023-01-04T13:51:17.523Z,8.76
2023-01-04T13:53:53.544Z,8.80
2023-01-04T13:56:22.833Z,8.75
2023-01-04T13:58:51.638Z,8.75
2023-01-04T14:01:22.289Z,8.75
2023-01-04T14:03:51.317Z,8.70
2023-01-04T14:06:23.104Z,8.62
2023-01-04T14:08:56.539Z,8.60
2023-01-04T14:11:42.899Z,8.63
2023-01-04T14:14:20.877Z,8.62
2023-01-04T14:16:49.100Z,8.57
2023-01-04T14:19:51.229Z,8.56
2023-01-04T14:22:41.035Z,8.55
2023-01-04T14:28:49.921Z,8.39
2023-01-04T14:31:36.958Z,8.40
2023-01-04T14:34:09.314Z,8.38
2023-01-04T14:36:37.388Z,8.31
2023-01-04T14:39:26.787Z,8.34
2023-01-04T14:41:57.461Z,8.27
2023-01-04T14:44:27.649Z,8.27
2023-01-04T14:46:56.590Z,8.15
2023-01-04T14:49:26.904Z,8.08
2023-01-04T14:51:55.714Z,8.08
2023-01-04T14:54:25.842Z,8.16
2023-01-04T14:56:53.959Z,8.14
2023-01-04T14:59:23.865Z,8.13
2023-01-04T15:01:52.517Z,8.10
2023-01-04T15:04:20.705Z,8.10
2023-01-04T15:06:50.479Z,8.00
2023-01-04T15:09:18.391Z,8.03
2023-01-04T15:11:50.413Z,8.00
2023-01-04T15:14:18.468Z,8.05
2023-01-04T15:16:46.437Z,8.00
2023-01-04T15:19:14.452Z,8.00
2023-01-04T15:21:42.440Z,8.04
2023-01-04T15:24:10.573Z,8.03
2023-01-04T15:26:39.183Z,8.05
2023-01-04T15:29:08.707Z,8.03
2023-01-04T15:31:39.790Z,8.04
2023-01-04T15:34:09.323Z,8.03
2023-01-04T15:36:40.587Z,7.98
2023-01-04T15:39:09.125Z,8.06
2023-01-04T15:41:54.604Z,8.02
2023-01-04T15:44:23.950Z,7.96
2023-01-04T15:46:53.211Z,7.88
2023-01-04T15:49:21.226Z,7.94
2023-01-04T15:51:49.219Z,7.94
2023-01-04T15:54:17.564Z,7.99
2023-01-04T15:56:45.591Z,7.99
2023-01-04T15:59:13.868Z,7.96
2023-01-04T16:01:43.347Z,7.91
2023-01-04T16:04:12.430Z,7.98
2023-01-04T16:06:40.508Z,7.92
2023-01-04T16:09:08.454Z,7.90
2023-01-04T16:11:36.416Z,7.91
2023-01-04T16:14:04.364Z,7.88
2023-01-04T16:16:32.843Z,7.86
2023-01-04T16:19:02.724Z,7.87
2023-01-04T16:21:31.619Z,7.89
2023-01-04T16:24:07.212Z,7.93
2023-01-04T16:26:41.115Z,7.97
2023-01-04T16:29:09.131Z,7.98
2023-01-04T16:31:37.529Z,7.94
2023-01-04T16:34:06.979Z,7.94
2023-01-04T16:36:34.935Z,8.01
2023-01-04T16:39:02.929Z,8.04
2023-01-04T16:41:30.899Z,8.10
2023-01-04T16:43:59.593Z,8.10
2023-01-04T16:46:27.868Z,8.06
2023-01-04T16:48:56.605Z,7.98
2023-01-04T16:51:26.519Z,7.93
2023-01-04T16:53:54.584Z,7.92
2023-01-04T16:56:23.461Z,7.85
2023-01-04T16:58:51.512Z,7.84
2023-01-04T17:01:20.435Z,7.85
2023-01-04T17:03:48.852Z,7.87
2023-01-04T17:06:17.526Z,7.91
2023-01-04T17:08:47.660Z,7.88
2023-01-04T17:12:10.994Z,7.90
2023-01-04T17:14:04.552Z,7.95
2023-01-04T17:16:34.919Z,7.93
2023-01-04T17:19:03.225Z,7.88
2023-01-04T17:21:34.383Z,7.85
2023-01-04T17:24:04.557Z,7.77
2023-01-04T17:26:33.258Z,7.82
2023-01-04T17:29:01.509Z,7.84
2023-01-04T17:31:30.417Z,7.79
2023-01-04T17:33:58.413Z,7.76
2023-01-04T17:36:26.402Z,7.72
2023-01-04T17:38:54.351Z,7.74
2023-01-04T17:41:24.184Z,7.70
2023-01-04T17:43:52.675Z,7.69
2023-01-04T17:46:23.304Z,7.67
2023-01-04T17:48:58.973Z,7.71
2023-01-04T17:51:40.033Z,7.65
2023-01-04T17:54:08.502Z,7.68
2023-01-04T17:56:38.064Z,7.72
2023-01-04T17:59:06.837Z,7.71
2023-01-04T18:01:35.365Z,7.75
2023-01-04T18:04:03.541Z,7.75
2023-01-04T18:06:33.037Z,7.66
2023-01-04T18:09:01.107Z,7.62
2023-01-04T18:11:29.159Z,7.60
2023-01-04T18:13:58.459Z,7.63
2023-01-04T18:16:27.213Z,7.67
2023-01-04T18:18:55.282Z,7.64
2023-01-04T18:21:28.427Z,7.59
2023-01-04T18:29:34.592Z,7.52
2023-01-04T18:32:02.564Z,7.48
2023-01-04T18:34:30.550Z,7.45
2023-01-04T18:36:58.545Z,7.50
2023-01-04T18:39:26.682Z,7.54
2023-01-04T18:41:54.588Z,7.55
2023-01-04T18:44:32.680Z,7.55
2023-01-04T18:47:03.112Z,7.58
2023-01-04T18:49:31.083Z,7.76
2023-01-04T18:51:59.122Z,7.89
2023-01-04T18:54:27.093Z,7.77
2023-01-04T18:57:00.794Z,7.70
2023-01-04T18:59:29.565Z,7.65
2023-01-04T19:02:01.310Z,7.64
2023-01-04T19:04:32.209Z,7.74
2023-01-04T19:07:00.205Z,7.63
2023-01-04T19:09:28.183Z,7.66
2023-01-04T19:11:56.160Z,7.71
2023-01-04T19:14:24.131Z,7.68
2023-01-04T19:16:53.192Z,7.70
2023-01-04T19:19:21.337Z,7.70
2023-01-04T19:21:50.645Z,7.73
2023-01-04T19:24:18.589Z,7.72
2023-01-04T19:26:46.615Z,7.72
2023-01-04T19:29:14.609Z,7.73
2023-01-04T19:31:42.551Z,7.74
2023-01-04T19:34:10.733Z,7.76
2023-01-04T19:36:38.727Z,7.70
2023-01-04T19:39:09.408Z,7.71
2023-01-04T19:41:38.319Z,7.72
2023-01-04T19:44:07.341Z,7.71
2023-01-04T19:46:35.373Z,7.73
2023-01-04T19:49:03.406Z,7.67
2023-01-04T19:51:31.362Z,7.67
2023-01-04T19:53:59.299Z,7.64
2023-01-04T19:56:28.631Z,7.67
2023-01-04T19:58:56.540Z,7.70
2023-01-04T20:01:24.595Z,7.69
2023-01-04T20:03:53.187Z,7.70
2023-01-04T20:06:21.439Z,7.74
2023-01-04T20:08:49.389Z,7.80
2023-01-04T20:11:17.341Z,7.78
2023-01-04T20:13:46.615Z,7.79
2023-01-04T20:16:14.561Z,7.78
2023-01-04T20:18:42.605Z,7.76
2023-01-04T20:21:11.505Z,7.74
2023-01-04T20:23:39.590Z,7.71
2023-01-04T20:26:11.411Z,7.71
2023-01-04T20:28:41.864Z,7.70
2023-01-04T20:31:12.717Z,7.68
2023-01-04T20:33:40.816Z,7.72
2023-01-04T20:36:09.899Z,7.72
2023-01-04T20:38:40.220Z,7.73
2023-01-04T20:41:08.636Z,7.76
2023-01-04T20:43:37.185Z,7.75
2023-01-04T20:46:05.691Z,7.83
2023-01-04T20:48:35.085Z,7.88
2023-01-04T20:51:06.952Z,7.86
2023-01-04T20:53:36.217Z,7.66
2023-01-04T20:56:08.391Z,7.63
2023-01-04T20:58:36.360Z,7.67
2023-01-04T21:01:05.517Z,7.65
2023-01-04T21:03:35.074Z,7.62
2023-01-04T21:06:03.495Z,7.57
2023-01-04T21:08:31.502Z,7.58
2023-01-04T21:10:59.455Z,7.64
2023-01-04T21:13:28.283Z,7.68
2023-01-04T21:15:56.284Z,7.64
2023-01-04T21:18:24.373Z,7.59
2023-01-04T21:20:53.729Z,7.59
2023-01-04T21:23:25.536Z,7.56
2023-01-04T21:25:53.553Z,7.60
2023-01-04T21:28:22.344Z,7.60
2023-01-04T21:30:50.396Z,7.61
2023-01-04T21:33:18.345Z,7.59
2023-01-04T21:35:46.305Z,7.57
2023-01-04T21:38:15.667Z,7.56
2023-01-04T21:40:43.649Z,7.58
2023-01-04T21:43:15.821Z,7.57
2023-01-04T21:45:43.733Z,7.59
2023-01-04T21:48:11.707Z,7.57
2023-01-04T21:50:39.644Z,7.51
2023-01-04T21:53:07.596Z,7.45
2023-01-04T21:55:36.954Z,7.48
2023-01-04T21:58:04.912Z,7.46
2023-01-04T22:00:32.862Z,7.41
2023-01-04T22:03:00.902Z,7.36
2023-01-04T22:05:28.857Z,7.31
2023-01-04T22:07:56.796Z,7.28
2023-01-04T22:10:24.779Z,7.23
2023-01-04T22:12:54.091Z,7.16
2023-01-04T22:15:22.073Z,7.12
2023-01-04T22:17:51.365Z,7.02
2023-01-04T22:20:19.398Z,6.96
2023-01-04T22:22:47.345Z,6.92
2023-01-04T22:25:15.363Z,6.88
2023-01-04T22:27:43.345Z,6.86
2023-01-04T22:30:13.632Z,6.88
2023-01-04T22:32:41.583Z,6.86
2023-01-04T22:35:10.135Z,6.86
2023-01-04T22:37:38.052Z,6.86
2023-01-04T22:40:07.075Z,6.85
2023-01-04T22:42:35.019Z,6.83
2023-01-04T22:45:07.918Z,6.81
2023-01-04T22:47:40.409Z,6.81
2023-01-04T22:50:08.940Z,6.73
2023-01-04T22:52:36.881Z,6.68
2023-01-04T22:55:05.072Z,6.58
2023-01-04T22:57:33.002Z,6.54
2023-01-04T23:00:00.961Z,6.50
2023-01-04T23:02:28.945Z,6.44
2023-01-04T23:04:58.257Z,6.39
2023-01-04T23:07:26.184Z,6.33
2023-01-04T23:09:54.090Z,6.20
2023-01-04T23:12:22.044Z,6.13
2023-01-04T23:14:49.986Z,6.06
2023-01-04T23:17:17.970Z,6.03
2023-01-04T23:19:45.938Z,5.98
2023-01-04T23:22:15.233Z,5.96
2023-01-04T23:24:43.154Z,5.95
2023-01-04T23:27:11.123Z,5.95
2023-01-04T23:29:39.075Z,6.02
2023-01-04T23:32:07.445Z,6.08
2023-01-04T23:34:35.425Z,6.15
2023-01-04T23:37:03.367Z,6.21
2023-01-04T23:39:32.672Z,6.27
2023-01-04T23:42:00.667Z,6.27
2023-01-04T23:44:30.961Z,6.28
2023-01-04T23:46:59.539Z,6.30
2023-01-04T23:49:28.214Z,6.32
2023-01-04T23:51:56.139Z,6.36
2023-01-04T23:54:24.290Z,6.38
2023-01-04T23:56:53.835Z,6.41
2023-01-04T23:59:22.150Z,6.44
